createdAt,value
2022-11-30T00:00:41.689Z,5.63
2022-11-30T00:01:43.131Z,5.40
2022-11-30T00:02:44.810Z,6.03
2022-11-30T00:03:47.164Z,6.20
2022-11-30T00:04:49.143Z,5.90
2022-11-30T00:05:51.114Z,5.35
2022-11-30T00:06:57.153Z,5.80
2022-11-30T00:08:01.108Z,5.93
2022-11-30T00:09:02.671Z,5.65
2022-11-30T00:10:05.901Z,5.50
2022-11-30T00:11:15.547Z,5.43
2022-11-30T00:12:16.992Z,5.72
2022-11-30T00:13:18.430Z,5.22
2022-11-30T00:14:19.870Z,5.30
2022-11-30T00:15:21.322Z,5.68
2022-11-30T00:16:23.081Z,5.30
2022-11-30T00:17:24.585Z,5.47
2022-11-30T00:18:26.023Z,5.38
2022-11-30T00:19:27.469Z,5.63
2022-11-30T00:20:30.090Z,5.75
2022-11-30T00:21:31.797Z,5.88
2022-11-30T00:22:33.618Z,5.80
2022-11-30T00:23:39.720Z,5.35
2022-11-30T00:24:41.149Z,5.35
2022-11-30T00:25:42.553Z,5.03
2022-11-30T00:26:44.170Z,5.97
2022-11-30T00:27:45.588Z,5.75
2022-11-30T00:28:48.003Z,5.45
2022-11-30T00:29:49.478Z,5.25
2022-11-30T00:31:00.560Z,5.47
2022-11-30T00:32:02.049Z,5.57
2022-11-30T00:33:03.528Z,5.57
2022-11-30T00:34:05.497Z,6.00
2022-11-30T00:35:07.238Z,5.20
2022-11-30T00:36:13.530Z,5.60
2022-11-30T00:37:15.117Z,5.32
2022-11-30T00:38:16.556Z,5.13
2022-11-30T00:39:18.001Z,5.00
2022-11-30T00:40:19.452Z,5.63
2022-11-30T00:41:21.393Z,5.20
2022-11-30T00:42:22.814Z,5.15
2022-11-30T00:43:24.317Z,5.13
2022-11-30T00:44:25.861Z,5.45
2022-11-30T00:45:27.327Z,5.30
2022-11-30T00:46:28.841Z,5.50
2022-11-30T00:47:30.478Z,5.63
2022-11-30T00:48:32.319Z,5.55
2022-11-30T00:49:37.038Z,5.25
2022-11-30T00:50:38.486Z,5.93
2022-11-30T00:51:39.965Z,5.50
2022-11-30T00:52:41.368Z,5.35
2022-11-30T00:53:42.878Z,5.30
2022-11-30T00:54:44.859Z,5.13
2022-11-30T00:55:47.273Z,5.07
2022-11-30T00:56:48.734Z,5.53
2022-11-30T00:57:50.201Z,5.05
2022-11-30T00:58:51.981Z,5.65
2022-11-30T00:59:53.440Z,5.57
2022-11-30T01:00:54.951Z,5.35
2022-11-30T01:01:56.500Z,5.65
2022-11-30T01:02:59.380Z,5.97
2022-11-30T01:04:01.143Z,5.57
2022-11-30T01:05:02.590Z,5.47
2022-11-30T01:06:06.115Z,5.38
2022-11-30T01:07:07.576Z,5.63
2022-11-30T01:08:11.148Z,5.72
2022-11-30T01:09:12.915Z,5.80
2022-11-30T01:10:14.451Z,5.60
2022-11-30T01:11:20.656Z,5.57
2022-11-30T01:12:22.215Z,5.20
2022-11-30T01:13:24.461Z,5.55
2022-11-30T01:14:26.858Z,5.45
2022-11-30T01:15:28.636Z,5.50
2022-11-30T01:16:32.122Z,5.65
2022-11-30T01:17:34.520Z,6.05
2022-11-30T01:18:38.241Z,5.43
2022-11-30T01:19:39.657Z,5.57
2022-11-30T01:20:42.709Z,5.47
2022-11-30T01:22:45.577Z,5.22
2022-11-30T01:23:48.349Z,5.55
2022-11-30T01:24:49.961Z,5.68
2022-11-30T01:25:55.498Z,5.47
2022-11-30T01:26:56.996Z,5.65
2022-11-30T01:27:58.432Z,5.97
2022-11-30T01:29:00.150Z,5.43
2022-11-30T01:30:01.979Z,5.95
2022-11-30T01:31:09.495Z,5.68
2022-11-30T01:32:10.993Z,5.40
2022-11-30T01:33:12.478Z,6.03
2022-11-30T01:34:13.914Z,5.95
2022-11-30T01:35:15.598Z,5.43
2022-11-30T01:36:20.111Z,5.60
2022-11-30T01:37:21.528Z,5.82
2022-11-30T01:38:22.966Z,5.70
2022-11-30T01:39:24.657Z,5.18
2022-11-30T01:40:26.097Z,5.85
2022-11-30T01:41:30.850Z,6.13
2022-11-30T01:42:33.248Z,5.90
2022-11-30T01:43:39.211Z,5.65
2022-11-30T01:44:51.365Z,5.68
2022-11-30T01:45:52.858Z,5.32
2022-11-30T01:47:09.988Z,5.50
2022-11-30T01:48:11.414Z,5.43
2022-11-30T01:49:15.306Z,5.60
2022-11-30T01:50:25.761Z,5.53
2022-11-30T01:51:31.182Z,6.05
2022-11-30T01:52:37.344Z,5.70
2022-11-30T01:53:38.850Z,5.85
2022-11-30T01:54:56.294Z,5.88
2022-11-30T01:55:57.773Z,5.82
2022-11-30T01:57:06.664Z,5.95
2022-11-30T01:58:12.212Z,5.57
2022-11-30T01:59:14.484Z,5.72
2022-11-30T02:00:17.231Z,5.75
2022-11-30T02:01:18.796Z,5.55
2022-11-30T02:02:27.092Z,5.80
2022-11-30T02:03:49.248Z,6.00
2022-11-30T02:04:51.155Z,5.72
2022-11-30T02:05:53.091Z,5.78
2022-11-30T02:06:56.534Z,5.60
2022-11-30T02:07:58.153Z,5.90
2022-11-30T02:09:00.091Z,5.65
2022-11-30T02:10:01.873Z,5.90
2022-11-30T02:11:06.129Z,5.60
2022-11-30T02:12:14.397Z,6.07
2022-11-30T02:13:45.032Z,5.63
2022-11-30T02:14:51.430Z,5.75
2022-11-30T02:16:17.787Z,5.72
2022-11-30T02:17:32.963Z,5.38
2022-11-30T02:18:49.263Z,5.50
2022-11-30T02:20:18.606Z,5.50
2022-11-30T02:21:32.540Z,5.40
2022-11-30T02:22:45.849Z,5.80
2022-11-30T02:24:00.810Z,5.88
2022-11-30T02:25:11.453Z,5.50
2022-11-30T02:26:58.404Z,5.55
2022-11-30T02:28:49.214Z,5.82
2022-11-30T02:30:03.406Z,5.50
2022-11-30T02:31:08.554Z,5.78
2022-11-30T02:32:17.233Z,5.25
2022-11-30T02:33:23.893Z,6.20
2022-11-30T02:34:29.581Z,6.00
2022-11-30T02:35:35.430Z,6.10
2022-11-30T02:36:37.341Z,6.30
2022-11-30T02:37:39.944Z,6.20
2022-11-30T02:38:42.034Z,5.55
2022-11-30T02:39:44.405Z,6.15
2022-11-30T02:40:46.176Z,6.25
2022-11-30T02:41:47.727Z,6.30
2022-11-30T02:42:52.063Z,5.90
2022-11-30T02:43:53.701Z,6.35
2022-11-30T02:44:55.609Z,6.90
2022-11-30T02:46:23.328Z,6.95
2022-11-30T02:47:34.927Z,6.55
2022-11-30T02:48:47.198Z,6.72
2022-11-30T02:50:01.792Z,6.60
2022-11-30T02:51:06.695Z,6.75
2022-11-30T02:52:10.701Z,6.78
2022-11-30T02:53:13.264Z,6.38
2022-11-30T02:54:14.723Z,6.32
2022-11-30T02:55:19.122Z,6.93
2022-11-30T02:56:22.117Z,7.00
2022-11-30T02:58:25.042Z,6.38
2022-11-30T02:59:26.806Z,6.70
2022-11-30T03:00:28.645Z,6.22
2022-11-30T03:01:30.194Z,6.40
2022-11-30T03:02:31.756Z,6.90
2022-11-30T03:03:33.262Z,6.57
2022-11-30T03:04:34.782Z,6.97
2022-11-30T03:05:36.582Z,7.18
2022-11-30T03:06:38.093Z,7.35
2022-11-30T03:07:39.576Z,7.25
2022-11-30T03:08:41.036Z,6.63
2022-11-30T03:09:42.825Z,7.18
2022-11-30T03:10:44.219Z,7.20
2022-11-30T03:11:45.706Z,6.30
2022-11-30T03:12:47.207Z,6.70
2022-11-30T03:13:48.926Z,6.55
2022-11-30T03:14:50.771Z,6.43
2022-11-30T03:15:52.436Z,6.68
2022-11-30T03:16:53.988Z,6.63
2022-11-30T03:17:55.474Z,6.97
2022-11-30T03:19:00.036Z,6.80
2022-11-30T03:20:02.001Z,6.45
2022-11-30T03:21:11.786Z,7.30
2022-11-30T03:22:13.272Z,6.63
2022-11-30T03:23:14.810Z,6.97
2022-11-30T03:24:16.436Z,7.13
2022-11-30T03:25:18.250Z,6.95
2022-11-30T03:26:19.752Z,6.68
2022-11-30T03:27:21.439Z,7.03
2022-11-30T03:28:22.876Z,6.50
2022-11-30T03:29:24.422Z,7.22
2022-11-30T03:30:25.913Z,6.53
2022-11-30T03:31:27.456Z,6.40
2022-11-30T03:32:30.992Z,6.97
2022-11-30T03:33:32.854Z,6.80
2022-11-30T03:34:34.286Z,6.78
2022-11-30T03:35:36.138Z,6.55
2022-11-30T03:36:37.637Z,6.55
2022-11-30T03:37:39.207Z,6.60
2022-11-30T03:38:40.782Z,6.85
2022-11-30T03:39:42.246Z,6.28
2022-11-30T03:40:43.863Z,7.05
2022-11-30T03:41:45.295Z,6.78
2022-11-30T03:42:46.770Z,6.45
2022-11-30T03:43:48.484Z,6.75
2022-11-30T03:44:50.303Z,6.47
2022-11-30T03:45:51.776Z,6.82
2022-11-30T03:46:53.302Z,6.55
2022-11-30T03:47:54.865Z,6.70
2022-11-30T03:48:56.406Z,7.35
2022-11-30T03:49:58.175Z,6.47
2022-11-30T03:50:59.623Z,6.85
2022-11-30T03:52:01.091Z,6.97
2022-11-30T03:53:02.508Z,5.78
2022-11-30T03:54:03.993Z,7.28
2022-11-30T03:55:05.964Z,6.13
2022-11-30T03:56:09.548Z,6.75
2022-11-30T03:57:10.957Z,6.43
2022-11-30T03:58:12.748Z,6.75
2022-11-30T03:59:14.150Z,6.47
2022-11-30T04:00:16.378Z,6.78
2022-11-30T04:01:23.706Z,6.40
2022-11-30T04:02:25.464Z,6.72
2022-11-30T04:03:29.386Z,6.88
2022-11-30T04:04:30.807Z,6.68
2022-11-30T04:05:32.729Z,6.63
2022-11-30T04:06:34.466Z,6.28
2022-11-30T04:07:35.908Z,6.63
2022-11-30T04:08:38.167Z,6.78
2022-11-30T04:09:39.768Z,7.13
2022-11-30T04:10:41.612Z,6.82
2022-11-30T04:11:43.184Z,6.43
2022-11-30T04:12:44.682Z,6.85
2022-11-30T04:13:46.232Z,6.70
2022-11-30T04:14:48.250Z,6.50
2022-11-30T04:15:51.679Z,6.57
2022-11-30T04:16:53.237Z,6.20
2022-11-30T04:17:54.758Z,6.28
2022-11-30T04:18:56.268Z,6.63
2022-11-30T04:19:58.106Z,6.45
2022-11-30T04:21:02.951Z,6.47
2022-11-30T04:22:04.403Z,6.43
2022-11-30T04:23:05.958Z,6.20
2022-11-30T04:24:08.213Z,6.57
2022-11-30T04:25:10.498Z,6.55
2022-11-30T04:26:15.081Z,6.82
2022-11-30T04:27:16.672Z,6.40
2022-11-30T04:28:19.466Z,6.55
2022-11-30T04:29:20.903Z,6.55
2022-11-30T04:30:22.938Z,6.38
2022-11-30T04:31:24.564Z,6.93
2022-11-30T04:32:26.487Z,6.53
2022-11-30T04:33:28.556Z,7.30
2022-11-30T04:34:31.541Z,6.65
2022-11-30T04:35:33.953Z,6.75
2022-11-30T04:36:35.392Z,6.60
2022-11-30T04:37:37.071Z,6.70
2022-11-30T04:38:38.614Z,6.38
2022-11-30T04:39:40.067Z,6.40
2022-11-30T04:40:43.218Z,6.35
2022-11-30T04:41:44.905Z,6.70
2022-11-30T04:42:46.452Z,6.60
2022-11-30T04:43:47.942Z,6.03
2022-11-30T04:44:49.565Z,6.22
2022-11-30T04:45:51.968Z,6.07
2022-11-30T04:46:53.432Z,5.55
2022-11-30T04:47:54.898Z,5.97
2022-11-30T04:48:56.445Z,5.95
2022-11-30T04:49:57.866Z,6.53
2022-11-30T04:51:04.453Z,6.22
2022-11-30T04:52:05.877Z,6.50
2022-11-30T04:53:07.606Z,6.10
2022-11-30T04:54:09.122Z,6.15
2022-11-30T04:55:10.548Z,6.63
2022-11-30T04:56:13.265Z,6.07
2022-11-30T04:57:14.774Z,5.82
2022-11-30T04:58:16.202Z,5.95
2022-11-30T04:59:17.660Z,6.43
2022-11-30T05:00:19.733Z,6.70
2022-11-30T05:01:21.293Z,6.22
2022-11-30T05:02:22.802Z,6.72
2022-11-30T05:03:24.361Z,6.20
2022-11-30T05:04:25.956Z,6.20
2022-11-30T05:05:27.794Z,6.18
2022-11-30T05:06:29.559Z,6.32
2022-11-30T05:07:31.064Z,6.38
2022-11-30T05:08:32.593Z,5.95
2022-11-30T05:09:34.110Z,6.18
2022-11-30T05:10:35.609Z,6.28
2022-11-30T05:11:37.430Z,6.18
2022-11-30T05:12:38.875Z,6.65
2022-11-30T05:13:40.300Z,5.97
2022-11-30T05:14:41.701Z,6.25
2022-11-30T05:15:43.118Z,6.50
2022-11-30T05:16:48.110Z,6.25
2022-11-30T05:17:49.522Z,6.70
2022-11-30T05:18:53.897Z,7.18
2022-11-30T05:19:55.330Z,6.53
2022-11-30T05:20:56.733Z,6.57
2022-11-30T05:22:01.291Z,6.75
2022-11-30T05:23:02.742Z,6.80
2022-11-30T05:24:04.367Z,6.68
2022-11-30T05:25:06.389Z,6.43
2022-11-30T05:26:07.821Z,7.20
2022-11-30T05:27:14.364Z,6.57
2022-11-30T05:28:18.390Z,6.80
2022-11-30T05:29:19.869Z,6.80
2022-11-30T05:30:21.480Z,6.82
2022-11-30T05:31:23.010Z,6.90
2022-11-30T05:32:24.546Z,6.40
2022-11-30T05:33:25.982Z,6.60
2022-11-30T05:34:27.852Z,6.97
2022-11-30T05:35:29.309Z,7.13
2022-11-30T05:36:30.759Z,6.20
2022-11-30T05:37:32.591Z,6.53
2022-11-30T05:38:34.072Z,7.53
2022-11-30T05:39:35.663Z,6.60
2022-11-30T05:40:37.222Z,7.03
2022-11-30T05:41:38.672Z,6.97
2022-11-30T05:42:40.488Z,6.88
2022-11-30T05:43:47.766Z,7.13
2022-11-30T05:44:49.559Z,7.03
2022-11-30T05:45:51.255Z,7.00
2022-11-30T05:46:52.743Z,6.80
2022-11-30T05:47:54.596Z,7.15
2022-11-30T05:48:56.050Z,7.03
2022-11-30T05:49:57.708Z,7.43
2022-11-30T05:51:10.845Z,7.28
2022-11-30T05:52:12.388Z,7.38
2022-11-30T05:53:14.161Z,7.50
2022-11-30T05:54:15.655Z,7.10
2022-11-30T05:55:17.223Z,8.00
2022-11-30T05:56:20.814Z,7.00
2022-11-30T05:57:22.314Z,7.38
2022-11-30T05:58:23.861Z,7.40
2022-11-30T05:59:25.291Z,7.78
2022-11-30T06:00:26.913Z,7.75
2022-11-30T06:01:29.549Z,7.13
2022-11-30T06:02:31.148Z,7.45
2022-11-30T06:03:35.102Z,6.85
2022-11-30T06:04:36.562Z,7.60
2022-11-30T06:05:37.965Z,7.63
2022-11-30T06:06:39.381Z,6.90
2022-11-30T06:07:41.368Z,7.47
2022-11-30T06:08:43.683Z,7.88
2022-11-30T06:09:45.126Z,7.57
2022-11-30T06:10:47.267Z,8.48
2022-11-30T06:11:48.803Z,7.55
2022-11-30T06:12:50.253Z,8.00
2022-11-30T06:13:52.161Z,7.32
2022-11-30T06:14:53.605Z,8.15
2022-11-30T06:15:58.277Z,7.28
2022-11-30T06:17:01.097Z,7.43
2022-11-30T06:18:02.704Z,7.32
2022-11-30T06:19:04.576Z,7.50
2022-11-30T06:20:07.007Z,7.53
2022-11-30T06:21:10.386Z,8.25
2022-11-30T06:22:11.829Z,9.25
2022-11-30T06:23:13.277Z,7.95
2022-11-30T06:24:14.899Z,7.95
2022-11-30T06:25:16.354Z,8.25
2022-11-30T06:26:17.836Z,9.05
2022-11-30T06:27:25.203Z,8.63
2022-11-30T06:28:26.613Z,8.10
2022-11-30T06:29:28.371Z,8.15
2022-11-30T06:30:29.810Z,8.68
2022-11-30T06:31:32.082Z,7.68
2022-11-30T06:32:33.536Z,8.00
2022-11-30T06:33:35.411Z,7.95
2022-11-30T06:34:36.853Z,8.38
2022-11-30T06:35:45.057Z,7.45
2022-11-30T06:36:46.567Z,7.82
2022-11-30T06:37:48.029Z,8.32
2022-11-30T06:38:50.117Z,7.93
2022-11-30T06:40:05.984Z,7.65
2022-11-30T06:41:10.337Z,7.75
2022-11-30T06:42:11.842Z,8.18
2022-11-30T06:43:14.003Z,8.43
2022-11-30T06:44:15.766Z,8.20
2022-11-30T06:45:17.288Z,8.32
2022-11-30T06:46:19.066Z,7.88
2022-11-30T06:47:20.554Z,8.43
2022-11-30T06:48:23.399Z,8.40
2022-11-30T06:49:24.831Z,8.45
2022-11-30T06:50:26.361Z,7.57
2022-11-30T06:51:27.844Z,7.47
2022-11-30T06:52:31.309Z,7.60
2022-11-30T06:53:33.220Z,7.88
2022-11-30T06:54:34.665Z,8.43
2022-11-30T06:55:37.339Z,8.07
2022-11-30T06:56:38.808Z,8.63
2022-11-30T06:57:40.250Z,8.45
2022-11-30T06:58:41.974Z,8.18
2022-11-30T06:59:43.812Z,8.25
2022-11-30T07:00:45.467Z,8.00
2022-11-30T07:01:46.912Z,8.40
2022-11-30T07:02:48.430Z,8.48
2022-11-30T07:03:50.397Z,8.18
2022-11-30T07:04:51.924Z,8.48
2022-11-30T07:05:54.178Z,8.35
2022-11-30T07:06:56.538Z,8.27
2022-11-30T07:07:58.124Z,8.27
2022-11-30T07:08:59.963Z,8.00
2022-11-30T07:10:01.904Z,8.25
2022-11-30T07:11:04.104Z,7.70
2022-11-30T07:12:06.153Z,8.05
2022-11-30T07:13:14.312Z,7.72
2022-11-30T07:14:15.842Z,7.75
2022-11-30T07:15:17.645Z,7.75
2022-11-30T07:16:19.155Z,8.30
2022-11-30T07:17:20.768Z,9.05
2022-11-30T07:18:24.756Z,9.18
2022-11-30T07:19:31.130Z,8.48
2022-11-30T07:20:33.084Z,9.15
2022-11-30T07:21:34.525Z,8.75
2022-11-30T07:22:35.921Z,8.90
2022-11-30T07:23:57.206Z,9.23
2022-11-30T07:28:21.900Z,9.27
2022-11-30T07:29:23.352Z,8.45
2022-11-30T07:30:24.751Z,8.65
2022-11-30T07:31:31.544Z,9.20
2022-11-30T07:32:33.098Z,9.35
2022-11-30T07:33:34.870Z,8.73
2022-11-30T07:34:36.329Z,9.18
2022-11-30T07:35:37.756Z,8.88
2022-11-30T07:36:39.164Z,9.02
2022-11-30T07:37:40.566Z,8.80
2022-11-30T07:38:42.401Z,8.85
2022-11-30T07:39:43.844Z,9.10
2022-11-30T07:40:45.290Z,9.43
2022-11-30T07:41:46.728Z,9.65
2022-11-30T07:42:48.146Z,9.13
2022-11-30T07:43:50.788Z,8.80
2022-11-30T07:44:57.034Z,8.77
2022-11-30T07:46:01.536Z,8.60
2022-11-30T07:47:03.056Z,8.77
2022-11-30T07:48:04.515Z,8.57
2022-11-30T07:49:07.926Z,9.25
2022-11-30T07:50:09.832Z,9.00
2022-11-30T07:51:14.517Z,14.60
2022-11-30T07:52:16.014Z,15.70
2022-11-30T07:53:17.943Z,14.70
2022-11-30T07:54:19.444Z,11.43
2022-11-30T07:55:23.536Z,10.90
2022-11-30T07:56:25.913Z,9.95
2022-11-30T07:57:27.730Z,9.57
2022-11-30T07:58:31.126Z,8.88
2022-11-30T07:59:32.570Z,8.80
2022-11-30T08:00:34.007Z,9.43
2022-11-30T08:01:36.048Z,9.10
2022-11-30T08:02:37.547Z,9.80
2022-11-30T08:03:39.604Z,9.57
2022-11-30T08:04:41.124Z,9.35
2022-11-30T08:05:42.662Z,9.75
2022-11-30T08:06:44.385Z,10.15
2022-11-30T08:07:50.236Z,9.70
2022-11-30T08:08:53.795Z,9.07
2022-11-30T08:09:55.163Z,9.70
2022-11-30T08:10:57.390Z,9.25
2022-11-30T08:11:58.781Z,9.38
2022-11-30T08:13:00.151Z,9.25
2022-11-30T08:14:03.279Z,10.13
2022-11-30T08:15:19.986Z,9.70
2022-11-30T08:16:24.498Z,10.43
2022-11-30T08:17:25.979Z,9.32
2022-11-30T08:18:27.536Z,10.40
2022-11-30T08:19:29.007Z,10.07
2022-11-30T08:20:30.535Z,9.73
2022-11-30T08:21:32.417Z,9.30
2022-11-30T08:22:34.468Z,10.07
2022-11-30T08:23:38.980Z,9.77
2022-11-30T08:24:40.421Z,9.60
2022-11-30T08:25:41.914Z,9.75
2022-11-30T08:26:43.430Z,9.85
2022-11-30T08:27:45.079Z,9.77
2022-11-30T08:28:48.603Z,10.15
2022-11-30T08:29:50.068Z,9.55
2022-11-30T08:30:51.614Z,10.13
2022-11-30T08:31:53.080Z,10.25
2022-11-30T08:32:54.497Z,10.13
2022-11-30T08:33:57.615Z,10.85
2022-11-30T08:34:59.080Z,9.15
2022-11-30T08:36:15.291Z,9.63
2022-11-30T08:37:16.762Z,9.63
2022-11-30T08:38:18.339Z,9.68
2022-11-30T08:39:19.955Z,10.00
2022-11-30T08:40:21.398Z,10.95
2022-11-30T08:41:23.472Z,11.10
2022-11-30T08:42:24.889Z,11.38
2022-11-30T08:43:27.285Z,10.52
2022-11-30T08:44:29.590Z,10.73
2022-11-30T08:45:31.009Z,10.00
2022-11-30T08:46:53.032Z,10.60
2022-11-30T08:47:54.927Z,9.38
2022-11-30T08:49:13.007Z,10.15
2022-11-30T08:51:20.555Z,10.10
2022-11-30T08:52:21.969Z,9.60
2022-11-30T08:53:23.456Z,9.63
2022-11-30T08:54:26.297Z,10.75
2022-11-30T08:55:27.745Z,11.13
2022-11-30T08:56:29.186Z,11.27
2022-11-30T08:57:31.345Z,12.95
2022-11-30T08:58:36.530Z,16.33
2022-11-30T08:59:37.982Z,12.10
2022-11-30T09:00:39.458Z,10.57
2022-11-30T09:01:42.641Z,10.00
2022-11-30T09:02:44.575Z,11.40
2022-11-30T09:03:47.512Z,12.07
2022-11-30T09:04:51.022Z,10.13
2022-11-30T09:05:52.485Z,11.27
2022-11-30T09:06:58.743Z,10.07
2022-11-30T09:08:00.383Z,10.63
2022-11-30T09:09:02.276Z,10.40
2022-11-30T09:10:04.050Z,10.43
2022-11-30T09:11:09.686Z,10.57
2022-11-30T09:12:11.258Z,10.68
2022-11-30T09:13:13.073Z,10.65
2022-11-30T09:14:14.511Z,9.75
2022-11-30T09:15:15.948Z,10.88
2022-11-30T09:16:19.342Z,11.32
2022-11-30T09:17:20.819Z,10.43
2022-11-30T09:18:22.626Z,10.30
2022-11-30T09:19:25.002Z,10.38
2022-11-30T09:20:26.604Z,10.57
2022-11-30T09:21:28.085Z,10.02
2022-11-30T09:22:29.947Z,11.10
2022-11-30T09:23:31.735Z,10.40
2022-11-30T09:24:33.294Z,9.55
2022-11-30T09:25:34.724Z,9.82
2022-11-30T09:26:36.174Z,9.70
2022-11-30T09:27:37.955Z,11.63
2022-11-30T09:28:39.959Z,10.90
2022-11-30T09:29:41.436Z,10.82
2022-11-30T09:30:42.918Z,10.57
2022-11-30T09:31:44.416Z,10.82
2022-11-30T09:32:46.162Z,10.10
2022-11-30T09:33:48.118Z,10.23
2022-11-30T09:34:50.880Z,10.15
2022-11-30T09:37:01.033Z,9.02
2022-11-30T09:38:02.860Z,9.63
2022-11-30T09:39:04.281Z,10.15
2022-11-30T09:40:06.609Z,10.13
2022-11-30T09:41:34.474Z,10.00
2022-11-30T09:42:48.097Z,9.85
2022-11-30T09:43:55.260Z,12.20
2022-11-30T09:45:23.146Z,12.05
2022-11-30T09:46:33.697Z,11.13
2022-11-30T09:47:44.621Z,11.35
2022-11-30T09:48:54.449Z,10.38
2022-11-30T09:49:56.363Z,9.18
2022-11-30T09:51:04.922Z,9.57
2022-11-30T09:52:13.757Z,9.77
2022-11-30T09:53:29.638Z,9.38
2022-11-30T09:54:37.897Z,9.95
2022-11-30T09:55:42.645Z,9.30
2022-11-30T09:56:45.496Z,9.30
2022-11-30T09:57:52.743Z,8.95
2022-11-30T09:59:00.356Z,9.23
2022-11-30T10:00:05.947Z,10.15
2022-11-30T10:01:17.071Z,9.25
2022-11-30T10:02:18.753Z,8.70
2022-11-30T10:03:23.204Z,9.65
2022-11-30T10:04:29.900Z,8.82
2022-11-30T10:05:41.665Z,9.70
2022-11-30T10:07:02.280Z,9.32
2022-11-30T10:08:20.624Z,8.82
2022-11-30T10:09:22.070Z,8.85
2022-11-30T10:10:41.549Z,9.52
2022-11-30T10:12:01.747Z,9.40
2022-11-30T10:13:12.783Z,8.73
2022-11-30T10:14:24.627Z,9.13
2022-11-30T10:15:28.796Z,9.25
2022-11-30T10:16:44.449Z,8.97
2022-11-30T10:18:02.554Z,9.23
2022-11-30T10:19:19.263Z,9.93
2022-11-30T10:20:52.606Z,8.57
2022-11-30T10:22:08.713Z,8.93
2022-11-30T10:23:19.381Z,9.10
2022-11-30T10:24:26.956Z,8.82
2022-11-30T10:25:44.681Z,9.35
2022-11-30T10:26:54.402Z,9.35
2022-11-30T10:28:47.045Z,8.88
2022-11-30T10:29:49.339Z,9.25
2022-11-30T10:30:50.782Z,8.73
2022-11-30T10:31:57.820Z,8.93
2022-11-30T10:33:10.399Z,8.60
2022-11-30T10:34:31.096Z,9.00
2022-11-30T10:35:41.951Z,9.27
2022-11-30T10:37:00.858Z,9.20
2022-11-30T10:38:11.866Z,9.52
2022-11-30T10:39:19.617Z,8.82
2022-11-30T10:40:36.160Z,8.75
2022-11-30T10:41:47.748Z,8.93
2022-11-30T10:43:26.541Z,9.00
2022-11-30T10:44:32.080Z,9.10
2022-11-30T10:45:36.190Z,8.73
2022-11-30T10:46:43.878Z,9.07
2022-11-30T10:48:07.035Z,9.32
2022-11-30T10:49:15.935Z,10.57
2022-11-30T10:50:18.041Z,10.23
2022-11-30T10:51:20.458Z,9.90
2022-11-30T10:52:35.071Z,10.27
2022-11-30T10:53:37.082Z,9.73
2022-11-30T10:54:38.529Z,10.02
2022-11-30T10:56:07.147Z,9.98
2022-11-30T10:57:09.266Z,9.18
2022-11-30T10:58:32.133Z,9.93
2022-11-30T10:59:47.266Z,9.55
2022-11-30T11:02:32.814Z,10.07
2022-11-30T11:03:34.971Z,9.10
2022-11-30T11:04:36.412Z,9.25
2022-11-30T11:05:37.899Z,10.00
2022-11-30T11:07:08.377Z,10.18
2022-11-30T11:08:25.775Z,9.95
2022-11-30T11:09:30.224Z,9.85
2022-11-30T11:10:51.551Z,10.07
2022-11-30T11:11:55.663Z,10.00
2022-11-30T11:12:58.133Z,9.95
2022-11-30T11:14:23.144Z,9.63
2022-11-30T11:15:24.767Z,9.82
2022-11-30T11:16:26.588Z,9.52
2022-11-30T11:17:29.026Z,9.55
2022-11-30T11:18:32.699Z,9.50
2022-11-30T11:19:38.021Z,9.13
2022-11-30T11:20:42.609Z,9.10
2022-11-30T11:21:49.345Z,9.70
2022-11-30T11:22:51.167Z,9.18
2022-11-30T11:23:57.750Z,9.07
2022-11-30T11:25:19.303Z,8.98
2022-11-30T11:26:26.470Z,8.88
2022-11-30T11:27:31.558Z,10.05
2022-11-30T11:28:41.387Z,9.68
2022-11-30T11:29:42.982Z,9.88
2022-11-30T11:30:44.653Z,9.77
2022-11-30T11:31:47.315Z,10.43
2022-11-30T11:33:02.264Z,9.77
2022-11-30T11:34:05.905Z,10.45
2022-11-30T11:35:34.013Z,10.18
2022-11-30T11:36:36.938Z,9.75
2022-11-30T11:37:41.545Z,9.48
2022-11-30T11:38:45.644Z,8.90
2022-11-30T11:40:17.628Z,10.30
2022-11-30T11:41:27.808Z,8.65
2022-11-30T11:42:33.549Z,9.20
2022-11-30T11:43:56.490Z,9.38
2022-11-30T11:44:59.690Z,9.85
2022-11-30T11:46:13.148Z,9.00
2022-11-30T11:47:32.898Z,9.93
2022-11-30T11:48:38.609Z,9.60
2022-11-30T11:49:40.492Z,9.52
2022-11-30T11:51:06.733Z,10.07
2022-11-30T11:52:08.731Z,9.40
2022-11-30T11:53:10.202Z,9.27
2022-11-30T11:54:18.907Z,10.40
2022-11-30T11:55:21.223Z,9.80
2022-11-30T11:56:32.001Z,10.18
2022-11-30T11:57:45.026Z,10.00
2022-11-30T11:59:01.171Z,9.63
2022-11-30T12:00:15.624Z,9.73
2022-11-30T12:01:41.533Z,10.25
2022-11-30T12:02:53.833Z,9.25
2022-11-30T12:04:38.912Z,9.57
2022-11-30T12:05:44.328Z,9.32
2022-11-30T12:06:48.680Z,10.52
2022-11-30T12:08:07.629Z,9.63
2022-11-30T12:09:18.541Z,9.77
2022-11-30T12:11:52.800Z,10.40
2022-11-30T12:12:55.319Z,10.18
2022-11-30T12:13:57.267Z,10.07
2022-11-30T12:14:59.127Z,9.80
2022-11-30T12:16:24.025Z,10.10
2022-11-30T12:18:03.006Z,10.95
2022-11-30T12:19:41.980Z,11.60
2022-11-30T12:21:00.595Z,10.70
2022-11-30T12:22:17.590Z,10.13
2022-11-30T12:23:27.903Z,9.90
2022-11-30T12:24:47.429Z,9.77
2022-11-30T12:25:59.833Z,9.70
2022-11-30T12:27:16.518Z,9.38
2022-11-30T12:28:23.947Z,8.95
2022-11-30T12:29:39.399Z,9.90
2022-11-30T12:31:11.739Z,9.88
2022-11-30T12:32:40.176Z,9.55
2022-11-30T12:34:22.986Z,9.45
2022-11-30T12:35:51.256Z,10.82
2022-11-30T12:37:11.170Z,14.73
2022-11-30T12:38:37.121Z,14.35
2022-11-30T12:39:45.648Z,16.48
2022-11-30T12:41:04.224Z,16.85
2022-11-30T12:42:19.348Z,12.90
2022-11-30T12:43:42.100Z,11.25
2022-11-30T12:45:07.699Z,10.43
2022-11-30T12:46:24.434Z,8.48
2022-11-30T12:47:54.544Z,9.00
2022-11-30T12:49:30.793Z,8.88
2022-11-30T12:50:50.983Z,9.40
2022-11-30T12:51:59.411Z,9.23
2022-11-30T12:53:08.603Z,8.65
2022-11-30T12:56:12.345Z,8.85
2022-11-30T12:57:23.382Z,8.90
2022-11-30T12:58:42.484Z,8.68
2022-11-30T12:59:48.614Z,8.80
2022-11-30T13:01:11.237Z,8.70
2022-11-30T13:02:24.630Z,9.20
2022-11-30T13:03:51.813Z,9.13
2022-11-30T13:05:01.285Z,9.52
2022-11-30T13:06:11.961Z,9.43
2022-11-30T13:07:22.795Z,9.10
2022-11-30T13:08:33.467Z,9.25
2022-11-30T13:09:41.422Z,8.80
2022-11-30T13:10:46.187Z,9.20
2022-11-30T13:11:55.287Z,10.02
2022-11-30T13:12:57.545Z,8.85
2022-11-30T13:14:00.580Z,9.52
2022-11-30T13:16:08.614Z,8.68
2022-11-30T13:17:18.940Z,9.63
2022-11-30T13:18:22.976Z,9.60
2022-11-30T13:19:36.739Z,9.43
2022-11-30T13:21:06.866Z,9.68
2022-11-30T13:22:50.704Z,8.98
2022-11-30T13:24:15.438Z,9.10
2022-11-30T13:26:13.273Z,9.45
2022-11-30T13:27:37.921Z,8.77
2022-11-30T13:28:57.102Z,8.40
2022-11-30T13:30:23.112Z,9.25
2022-11-30T13:31:28.421Z,8.70
2022-11-30T13:32:57.217Z,8.90
2022-11-30T13:33:55.710Z,9.13
2022-11-30T13:35:29.388Z,9.90
2022-11-30T13:36:39.022Z,10.43
2022-11-30T13:37:40.475Z,9.48
2022-11-30T13:38:41.916Z,9.68
2022-11-30T13:39:53.290Z,10.07
2022-11-30T13:41:06.385Z,9.82
2022-11-30T13:42:07.856Z,9.10
2022-11-30T13:43:21.942Z,8.73
2022-11-30T13:44:33.913Z,8.82
2022-11-30T13:45:36.382Z,9.45
2022-11-30T13:46:39.144Z,8.98
2022-11-30T13:47:49.729Z,8.90
2022-11-30T13:49:19.002Z,10.07
2022-11-30T13:50:31.631Z,8.88
2022-11-30T13:51:39.508Z,9.20
2022-11-30T13:53:03.356Z,9.80
2022-11-30T13:54:39.502Z,8.77
2022-11-30T13:55:52.647Z,8.98
2022-11-30T13:56:54.100Z,8.65
2022-11-30T13:57:55.466Z,9.80
2022-11-30T13:59:34.863Z,9.18
2022-11-30T14:00:36.283Z,9.20
2022-11-30T14:01:37.775Z,9.98
2022-11-30T14:02:42.939Z,9.27
2022-11-30T14:03:48.012Z,9.30
2022-11-30T14:04:53.035Z,8.48
2022-11-30T14:05:54.491Z,10.25
2022-11-30T14:06:56.498Z,9.02
2022-11-30T14:08:01.117Z,9.07
2022-11-30T14:09:02.706Z,8.90
2022-11-30T14:10:05.887Z,8.27
2022-11-30T14:11:36.719Z,9.10
2022-11-30T14:12:45.803Z,8.88
2022-11-30T14:13:47.683Z,9.18
2022-11-30T14:14:49.315Z,9.07
2022-11-30T14:15:59.840Z,8.48
2022-11-30T14:17:01.571Z,8.75
2022-11-30T14:18:08.054Z,9.32
2022-11-30T14:19:10.586Z,9.02
2022-11-30T14:20:19.039Z,9.13
2022-11-30T14:21:33.371Z,8.93
2022-11-30T14:22:34.978Z,8.43
2022-11-30T14:23:39.529Z,7.75
2022-11-30T14:24:45.374Z,9.18
2022-11-30T14:25:51.082Z,8.88
2022-11-30T14:26:52.674Z,9.02
2022-11-30T14:27:55.718Z,8.98
2022-11-30T14:30:20.184Z,8.13
2022-11-30T14:31:25.566Z,8.50
2022-11-30T14:32:38.030Z,8.73
2022-11-30T14:33:54.745Z,8.55
2022-11-30T14:35:05.787Z,7.90
2022-11-30T14:36:09.369Z,8.23
2022-11-30T14:37:20.354Z,8.48
2022-11-30T14:38:32.935Z,8.30
2022-11-30T14:39:37.513Z,8.25
2022-11-30T14:40:49.651Z,9.10
2022-11-30T14:41:51.518Z,9.48
2022-11-30T14:42:55.746Z,9.00
2022-11-30T14:44:05.498Z,8.88
2022-11-30T14:45:19.810Z,9.43
2022-11-30T14:46:21.273Z,8.85
2022-11-30T14:47:25.239Z,8.60
2022-11-30T14:48:27.098Z,9.35
2022-11-30T14:49:28.561Z,9.20